createdAt,value
2018-06-14T00:00:24.389Z,78.80
2018-06-14T00:00:55.776Z,78.80
2018-06-14T00:01:27.162Z,78.80
2018-06-14T00:03:02.125Z,78.70
2018-06-14T00:03:33.508Z,78.70
2018-06-14T00:04:04.894Z,78.70
2018-06-14T00:04:36.272Z,78.70
2018-06-14T00:05:07.680Z,78.60
2018-06-14T00:05:39.067Z,78.60
2018-06-14T00:06:10.445Z,78.60
2018-06-14T00:06:41.835Z,79.00
2018-06-14T00:07:13.218Z,78.50
2018-06-14T00:07:44.663Z,78.50
2018-06-14T00:08:16.036Z,78.50
2018-06-14T00:08:47.426Z,78.50
2018-06-14T00:09:18.816Z,78.50
2018-06-14T00:09:50.192Z,78.60
2018-06-14T00:10:21.583Z,78.50
2018-06-14T00:10:52.959Z,78.50
2018-06-14T00:11:24.349Z,78.50
2018-06-14T00:11:55.733Z,78.50
2018-06-14T00:12:27.118Z,78.50
2018-06-14T00:12:58.546Z,78.50
2018-06-14T00:13:29.933Z,78.50
2018-06-14T00:14:01.317Z,78.50
2018-06-14T00:14:32.695Z,78.50
2018-06-14T00:15:04.077Z,78.40
2018-06-14T00:15:35.463Z,78.50
2018-06-14T00:16:06.851Z,78.50
2018-06-14T00:16:38.237Z,78.50
2018-06-14T00:17:09.645Z,78.50
2018-06-14T00:17:41.095Z,78.50
2018-06-14T00:18:12.479Z,78.40
2018-06-14T00:18:43.910Z,78.40
2018-06-14T00:19:15.299Z,78.40
2018-06-14T00:19:46.681Z,78.40
2018-06-14T00:20:18.057Z,78.00
2018-06-14T00:20:49.437Z,78.40
2018-06-14T00:21:20.816Z,78.40
2018-06-14T00:21:52.201Z,78.40
2018-06-14T00:22:23.579Z,78.40
2018-06-14T00:22:55.018Z,78.40
2018-06-14T00:23:26.436Z,78.40
2018-06-14T00:23:57.829Z,78.40
2018-06-14T00:24:29.215Z,78.40
2018-06-14T00:25:00.597Z,78.40
2018-06-14T00:25:31.991Z,78.40
2018-06-14T00:26:03.374Z,78.40
2018-06-14T00:26:34.755Z,78.40
2018-06-14T00:27:06.146Z,79.20
2018-06-14T00:27:37.525Z,78.40
2018-06-14T00:28:08.958Z,78.40
2018-06-14T00:28:40.338Z,78.30
2018-06-14T00:29:11.716Z,78.30
2018-06-14T00:29:43.100Z,78.30
2018-06-14T00:30:14.476Z,78.30
2018-06-14T00:30:45.860Z,78.30
2018-06-14T00:31:17.245Z,78.30
2018-06-14T00:32:20.387Z,78.20
2018-06-14T00:32:51.774Z,78.20
2018-06-14T00:33:23.226Z,78.20
2018-06-14T00:33:54.611Z,78.30
2018-06-14T00:34:25.993Z,78.20
2018-06-14T00:34:57.371Z,78.30
2018-06-14T00:35:28.755Z,78.20
2018-06-14T00:36:00.130Z,78.20
2018-06-14T00:36:31.515Z,78.20
2018-06-14T00:37:02.902Z,78.20
2018-06-14T00:37:34.288Z,78.20
2018-06-14T00:38:05.711Z,78.20
2018-06-14T00:38:37.140Z,78.10
2018-06-14T00:39:08.517Z,78.10
2018-06-14T00:39:39.905Z,78.10
2018-06-14T00:40:11.288Z,78.10
2018-06-14T00:40:42.717Z,78.10
2018-06-14T00:41:14.109Z,78.10
2018-06-14T00:41:45.499Z,78.20
2018-06-14T00:42:16.884Z,78.10
2018-06-14T00:42:48.274Z,78.20
2018-06-14T00:43:19.668Z,78.10
2018-06-14T00:43:51.102Z,78.10
2018-06-14T00:44:22.479Z,78.10
2018-06-14T00:44:53.862Z,78.00
2018-06-14T00:45:25.248Z,78.10
2018-06-14T00:45:56.626Z,78.00
2018-06-14T00:46:28.000Z,78.00
2018-06-14T00:46:59.385Z,78.00
2018-06-14T00:47:30.772Z,78.00
2018-06-14T00:48:02.150Z,78.10
2018-06-14T00:48:33.539Z,78.00
2018-06-14T00:49:04.927Z,78.00
2018-06-14T00:49:36.314Z,78.10
2018-06-14T00:50:39.466Z,78.00
2018-06-14T00:51:10.855Z,78.00
2018-06-14T00:51:42.247Z,77.90
2018-06-14T00:52:13.636Z,78.00
2018-06-14T00:52:45.021Z,78.00
2018-06-14T00:53:16.399Z,78.00
2018-06-14T00:53:47.807Z,78.00
2018-06-14T00:54:19.240Z,78.00
2018-06-14T00:54:50.631Z,78.00
2018-06-14T00:55:22.019Z,78.10
2018-06-14T00:55:53.406Z,78.00
2018-06-14T00:56:24.793Z,78.00
2018-06-14T00:56:56.174Z,78.00
2018-06-14T00:57:27.567Z,78.00
2018-06-14T00:57:58.954Z,77.90
2018-06-14T00:58:30.345Z,77.90
2018-06-14T00:59:01.790Z,77.90
2018-06-14T00:59:33.170Z,78.00
2018-06-14T01:00:04.556Z,77.90
2018-06-14T01:00:35.941Z,78.00
2018-06-14T01:01:07.320Z,77.90
2018-06-14T01:01:38.701Z,77.90
2018-06-14T01:02:10.089Z,77.90
2018-06-14T01:02:41.479Z,77.90
2018-06-14T01:03:12.874Z,77.90
2018-06-14T01:03:44.260Z,78.00
2018-06-14T01:04:15.696Z,78.00
2018-06-14T01:04:47.086Z,78.10
2018-06-14T01:05:18.479Z,78.00
2018-06-14T01:05:49.870Z,78.00
2018-06-14T01:06:21.249Z,78.00
2018-06-14T01:06:52.629Z,77.80
2018-06-14T01:07:24.017Z,78.00
2018-06-14T01:07:55.406Z,77.80
2018-06-14T01:08:26.789Z,77.80
2018-06-14T01:08:58.238Z,77.80
2018-06-14T01:09:29.618Z,77.80
2018-06-14T01:10:01.000Z,77.90
2018-06-14T01:10:32.388Z,77.80
2018-06-14T01:11:03.774Z,77.80
2018-06-14T01:11:35.156Z,77.80
2018-06-14T01:12:06.537Z,77.80
2018-06-14T01:12:37.920Z,77.80
2018-06-14T01:13:09.310Z,77.80
2018-06-14T01:13:40.688Z,77.80
2018-06-14T01:14:12.125Z,77.80
2018-06-14T01:14:43.496Z,77.80
2018-06-14T01:15:14.872Z,77.80
2018-06-14T01:15:46.245Z,77.80
2018-06-14T01:16:17.624Z,77.80
2018-06-14T01:16:49.010Z,77.80
2018-06-14T01:17:20.390Z,77.80
2018-06-14T01:17:51.765Z,77.80
2018-06-14T01:18:23.151Z,77.80
2018-06-14T01:18:54.533Z,77.80
2018-06-14T01:19:25.970Z,77.80
2018-06-14T01:19:57.357Z,77.80
2018-06-14T01:20:28.740Z,77.80
2018-06-14T01:21:00.122Z,77.80
2018-06-14T01:21:31.503Z,77.80
2018-06-14T01:22:02.887Z,77.80
2018-06-14T01:22:34.277Z,77.80
2018-06-14T01:23:05.668Z,77.80
2018-06-14T01:23:37.048Z,78.50
2018-06-14T01:24:08.476Z,77.80
2018-06-14T01:24:39.861Z,77.80
2018-06-14T01:25:11.247Z,77.80
2018-06-14T01:25:42.621Z,77.80
2018-06-14T01:26:14.009Z,77.80
2018-06-14T01:26:45.402Z,77.80
2018-06-14T01:27:16.775Z,77.80
2018-06-14T01:27:48.166Z,77.80
2018-06-14T01:28:19.550Z,77.80
2018-06-14T01:28:50.942Z,77.80
2018-06-14T01:29:22.374Z,77.70
2018-06-14T01:29:53.752Z,77.70
2018-06-14T01:30:25.172Z,77.70
2018-06-14T01:30:56.550Z,77.60
2018-06-14T01:31:27.936Z,77.70
2018-06-14T01:31:59.322Z,77.70
2018-06-14T01:32:30.703Z,77.70
2018-06-14T01:33:02.096Z,77.70
2018-06-14T01:33:33.486Z,77.70
2018-06-14T01:34:04.878Z,77.70
2018-06-14T01:35:08.084Z,77.70
2018-06-14T01:35:39.461Z,77.70
2018-06-14T01:36:10.854Z,77.70
2018-06-14T01:36:42.233Z,77.70
2018-06-14T01:37:13.613Z,77.60
2018-06-14T01:37:44.996Z,77.60
2018-06-14T01:38:16.428Z,77.70
2018-06-14T01:38:47.814Z,77.70
2018-06-14T01:39:51.028Z,77.70
2018-06-14T01:40:22.412Z,77.60
2018-06-14T01:40:53.798Z,77.60
2018-06-14T01:41:25.178Z,77.60
2018-06-14T01:41:56.565Z,77.70
2018-06-14T01:42:27.947Z,77.70
2018-06-14T01:42:59.331Z,77.70
2018-06-14T01:43:30.723Z,77.70
2018-06-14T01:44:02.110Z,77.70
2018-06-14T01:44:33.574Z,77.60
2018-06-14T01:45:04.950Z,77.60
2018-06-14T01:45:36.337Z,77.60
2018-06-14T01:46:07.727Z,77.50
2018-06-14T01:46:39.117Z,77.50
2018-06-14T01:47:10.510Z,77.50
2018-06-14T01:47:41.893Z,77.50
2018-06-14T01:48:13.274Z,77.50
2018-06-14T01:48:44.644Z,77.50
2018-06-14T01:49:16.076Z,77.50
2018-06-14T01:49:47.469Z,77.50
2018-06-14T01:50:18.850Z,77.50
2018-06-14T01:50:50.237Z,77.50
2018-06-14T01:51:21.616Z,77.60
2018-06-14T01:51:52.992Z,77.60
2018-06-14T01:52:24.374Z,77.60
2018-06-14T01:52:55.753Z,77.50
2018-06-14T01:53:27.133Z,77.50
2018-06-14T01:53:58.513Z,77.50
2018-06-14T01:54:29.953Z,77.50
2018-06-14T01:55:01.350Z,77.60
2018-06-14T01:55:32.744Z,77.60
2018-06-14T01:56:04.117Z,77.60
2018-06-14T01:56:35.488Z,77.50
2018-06-14T01:57:06.878Z,77.50
2018-06-14T01:57:38.263Z,77.50
2018-06-14T01:58:09.655Z,77.20
2018-06-14T01:58:41.029Z,77.50
2018-06-14T01:59:12.410Z,77.50
2018-06-14T01:59:43.856Z,77.50
2018-06-14T02:00:15.243Z,77.40
2018-06-14T02:00:46.627Z,77.50
2018-06-14T02:01:18.015Z,77.50
2018-06-14T02:01:49.396Z,77.50
2018-06-14T02:02:20.777Z,77.50
2018-06-14T02:02:52.166Z,77.50
2018-06-14T02:03:23.552Z,77.50
2018-06-14T02:03:54.937Z,77.60
2018-06-14T02:04:26.381Z,77.50
2018-06-14T02:04:57.758Z,77.60
2018-06-14T02:05:29.147Z,77.50
2018-06-14T02:06:00.531Z,77.50
2018-06-14T02:06:31.923Z,77.50
2018-06-14T02:07:03.313Z,77.60
2018-06-14T02:07:34.702Z,77.60
2018-06-14T02:08:06.078Z,77.60
2018-06-14T02:08:37.457Z,77.70
2018-06-14T02:09:08.838Z,77.60
2018-06-14T02:09:40.278Z,77.70
2018-06-14T02:10:11.648Z,77.60
2018-06-14T02:10:43.035Z,77.60
2018-06-14T02:11:14.408Z,77.50
2018-06-14T02:11:45.792Z,77.50
2018-06-14T02:12:17.180Z,77.50
2018-06-14T02:12:48.560Z,77.00
2018-06-14T02:13:19.939Z,77.50
2018-06-14T02:13:51.334Z,77.50
2018-06-14T02:14:22.726Z,77.50
2018-06-14T02:14:54.171Z,78.30
2018-06-14T02:15:25.563Z,77.60
2018-06-14T02:15:56.953Z,77.60
2018-06-14T02:16:28.345Z,77.50
2018-06-14T02:16:59.726Z,77.60
2018-06-14T02:17:31.113Z,77.50
2018-06-14T02:18:02.486Z,77.50
2018-06-14T02:18:33.869Z,77.50
2018-06-14T02:19:37.071Z,77.50
2018-06-14T02:20:08.452Z,77.60
2018-06-14T02:20:39.832Z,77.60
2018-06-14T02:21:11.215Z,77.50
2018-06-14T02:21:42.603Z,77.50
2018-06-14T02:22:13.992Z,77.50
2018-06-14T02:22:45.375Z,77.50
2018-06-14T02:23:16.754Z,77.40
2018-06-14T02:23:48.133Z,77.50
2018-06-14T02:24:51.348Z,77.50
2018-06-14T02:25:22.738Z,77.50
2018-06-14T02:25:54.123Z,77.50
2018-06-14T02:26:25.505Z,77.50
2018-06-14T02:26:56.896Z,77.50
2018-06-14T02:27:28.281Z,77.40
2018-06-14T02:27:59.654Z,77.50
2018-06-14T02:28:31.029Z,77.40
2018-06-14T02:29:02.405Z,77.40
2018-06-14T02:29:33.856Z,77.40
2018-06-14T02:30:05.290Z,77.50
2018-06-14T02:31:08.455Z,77.40
2018-06-14T02:31:39.838Z,77.40
2018-06-14T02:32:11.219Z,77.80
2018-06-14T02:32:42.603Z,77.20
2018-06-14T02:33:13.980Z,77.20
2018-06-14T02:33:45.366Z,77.30
2018-06-14T02:34:16.744Z,77.40
2018-06-14T02:34:48.183Z,77.40
2018-06-14T02:35:19.566Z,77.40
2018-06-14T02:35:50.950Z,77.40
2018-06-14T02:36:22.342Z,77.40
2018-06-14T02:36:53.729Z,78.20
2018-06-14T02:37:25.119Z,77.50
2018-06-14T02:37:56.509Z,77.50
2018-06-14T02:38:27.894Z,77.40
2018-06-14T02:38:59.280Z,77.40
2018-06-14T02:39:30.674Z,77.40
2018-06-14T02:40:02.115Z,77.40
2018-06-14T02:40:33.499Z,77.40
2018-06-14T02:41:04.878Z,77.40
2018-06-14T02:41:36.261Z,77.40
2018-06-14T02:42:07.643Z,77.40
2018-06-14T02:42:39.032Z,77.50
2018-06-14T02:43:10.413Z,77.40
2018-06-14T02:43:41.793Z,77.40
2018-06-14T02:44:13.177Z,77.40
2018-06-14T02:44:44.632Z,77.40
2018-06-14T02:45:16.014Z,77.30
2018-06-14T02:45:47.397Z,77.30
2018-06-14T02:46:18.781Z,77.20
2018-06-14T02:46:50.171Z,77.20
2018-06-14T02:47:21.554Z,77.10
2018-06-14T02:47:52.933Z,77.10
2018-06-14T02:48:24.317Z,77.10
2018-06-14T02:48:55.697Z,77.10
2018-06-14T02:49:27.085Z,77.10
2018-06-14T02:49:58.536Z,77.10
2018-06-14T02:50:29.920Z,77.10
2018-06-14T02:51:01.313Z,77.10
2018-06-14T02:51:32.701Z,77.00
2018-06-14T02:52:04.084Z,77.00
2018-06-14T02:52:35.469Z,77.10
2018-06-14T02:53:06.849Z,77.00
2018-06-14T02:53:38.232Z,77.00
2018-06-14T02:54:09.681Z,77.10
2018-06-14T02:54:41.070Z,77.10
2018-06-14T02:55:12.514Z,77.20
2018-06-14T02:55:43.902Z,77.10
2018-06-14T02:56:15.286Z,77.10
2018-06-14T02:56:46.669Z,77.10
2018-06-14T02:57:18.049Z,77.00
2018-06-14T02:57:49.425Z,77.10
2018-06-14T02:58:20.807Z,77.00
2018-06-14T02:58:52.191Z,77.00
2018-06-14T02:59:23.589Z,77.00
2018-06-14T02:59:55.033Z,77.00
2018-06-14T03:00:26.537Z,77.10
2018-06-14T03:00:57.942Z,77.10
2018-06-14T03:01:29.347Z,77.10
2018-06-14T03:02:00.729Z,77.10
2018-06-14T03:02:32.121Z,78.10
2018-06-14T03:03:03.505Z,77.10
2018-06-14T03:03:34.890Z,77.10
2018-06-14T03:04:06.267Z,77.00
2018-06-14T03:04:37.657Z,77.00
2018-06-14T03:05:09.111Z,77.00
2018-06-14T03:05:40.491Z,77.00
2018-06-14T03:06:11.870Z,77.10
2018-06-14T03:06:43.244Z,77.00
2018-06-14T03:07:14.628Z,77.10
2018-06-14T03:07:46.003Z,77.10
2018-06-14T03:08:17.382Z,77.10
2018-06-14T03:08:48.765Z,77.10
2018-06-14T03:09:20.153Z,77.10
2018-06-14T03:09:51.599Z,77.10
2018-06-14T03:10:23.033Z,77.00
2018-06-14T03:10:54.412Z,77.00
2018-06-14T03:11:25.802Z,77.10
2018-06-14T03:11:57.188Z,77.10
2018-06-14T03:12:28.581Z,77.10
2018-06-14T03:12:59.971Z,77.00
2018-06-14T03:13:31.352Z,77.00
2018-06-14T03:14:02.733Z,77.00
2018-06-14T03:14:34.129Z,77.00
2018-06-14T03:15:05.580Z,77.10
2018-06-14T03:15:36.956Z,77.10
2018-06-14T03:16:08.334Z,77.10
2018-06-14T03:16:39.712Z,77.20
2018-06-14T03:17:11.098Z,77.20
2018-06-14T03:17:42.478Z,77.10
2018-06-14T03:18:13.854Z,77.20
2018-06-14T03:18:45.243Z,77.10
2018-06-14T03:19:16.629Z,77.10
2018-06-14T03:19:48.019Z,77.20
2018-06-14T03:20:19.453Z,77.20
2018-06-14T03:20:50.845Z,77.20
2018-06-14T03:21:22.225Z,77.50
2018-06-14T03:21:53.601Z,77.20
2018-06-14T03:22:24.977Z,77.20
2018-06-14T03:22:56.366Z,77.20
2018-06-14T03:23:27.764Z,77.10
2018-06-14T03:23:59.149Z,77.10
2018-06-14T03:24:30.535Z,77.10
2018-06-14T03:25:01.968Z,77.00
2018-06-14T03:25:33.348Z,77.80
2018-06-14T03:26:04.728Z,77.00
2018-06-14T03:26:36.110Z,77.00
2018-06-14T03:27:07.493Z,77.00
2018-06-14T03:27:38.878Z,77.00
2018-06-14T03:28:10.261Z,77.00
2018-06-14T03:28:41.635Z,77.00
2018-06-14T03:29:13.015Z,77.00
2018-06-14T03:29:44.401Z,77.00
2018-06-14T03:30:15.832Z,77.00
2018-06-14T03:30:47.214Z,77.00
2018-06-14T03:31:18.599Z,77.10
2018-06-14T03:31:49.984Z,77.10
2018-06-14T03:32:21.361Z,77.10
2018-06-14T03:32:52.747Z,77.10
2018-06-14T03:33:24.136Z,77.10
2018-06-14T03:33:55.515Z,77.10
2018-06-14T03:34:26.892Z,77.00
2018-06-14T03:34:58.275Z,77.00
2018-06-14T03:35:29.708Z,77.00
2018-06-14T03:36:01.092Z,77.10
2018-06-14T03:36:32.479Z,77.10
2018-06-14T03:37:03.858Z,77.10
2018-06-14T03:37:35.232Z,77.10
2018-06-14T03:38:06.610Z,77.20
2018-06-14T03:38:38.001Z,77.10
2018-06-14T03:39:09.375Z,77.10
2018-06-14T03:39:40.763Z,77.10
2018-06-14T03:40:12.209Z,77.10
2018-06-14T03:40:43.635Z,77.10
2018-06-14T03:41:15.036Z,77.10
2018-06-14T03:41:46.454Z,77.10
2018-06-14T03:42:17.854Z,77.10
2018-06-14T03:42:49.235Z,77.20
2018-06-14T03:43:20.622Z,77.10
2018-06-14T03:43:52.007Z,77.20
2018-06-14T03:44:23.385Z,77.20
2018-06-14T03:44:54.769Z,77.20
2018-06-14T03:45:26.204Z,77.20
2018-06-14T03:45:57.588Z,77.10
2018-06-14T03:46:29.009Z,77.10
2018-06-14T03:47:00.439Z,77.10
2018-06-14T03:47:31.834Z,77.20
2018-06-14T03:48:03.221Z,77.10
2018-06-14T03:48:34.600Z,77.10
2018-06-14T03:49:05.974Z,77.10
2018-06-14T03:49:37.361Z,77.00
2018-06-14T03:50:08.735Z,76.90
2018-06-14T03:50:40.173Z,76.80
2018-06-14T03:51:11.553Z,76.80
2018-06-14T03:51:42.929Z,76.90
2018-06-14T03:52:14.302Z,76.80
2018-06-14T03:52:45.688Z,76.90
2018-06-14T03:53:17.077Z,77.00
2018-06-14T03:53:48.476Z,77.00
2018-06-14T03:54:19.862Z,76.90
2018-06-14T03:54:51.254Z,77.00
2018-06-14T03:55:22.695Z,77.00
2018-06-14T03:55:54.085Z,77.10
2018-06-14T03:56:25.471Z,76.90
2018-06-14T03:56:56.865Z,77.00
2018-06-14T03:57:28.240Z,76.90
2018-06-14T03:57:59.654Z,76.90
2018-06-14T03:58:31.041Z,77.00
2018-06-14T03:59:02.427Z,77.00
2018-06-14T03:59:33.809Z,76.90
2018-06-14T04:00:05.184Z,76.80
2018-06-14T04:00:36.618Z,76.90
2018-06-14T04:01:07.994Z,76.90
2018-06-14T04:01:39.392Z,76.80
2018-06-14T04:02:10.772Z,76.90
2018-06-14T04:02:42.172Z,77.00
2018-06-14T04:03:13.549Z,76.90
2018-06-14T04:03:44.925Z,76.90
2018-06-14T04:04:16.301Z,76.90
2018-06-14T04:04:47.683Z,76.80
2018-06-14T04:05:19.124Z,76.80
2018-06-14T04:05:50.502Z,77.00
2018-06-14T04:06:21.893Z,76.90
2018-06-14T04:06:53.283Z,76.90
2018-06-14T04:07:24.657Z,76.90
2018-06-14T04:07:56.047Z,77.00
2018-06-14T04:08:27.434Z,77.00
2018-06-14T04:08:58.818Z,77.00
2018-06-14T04:09:30.209Z,77.00
2018-06-14T04:10:01.601Z,77.00
2018-06-14T04:10:33.092Z,77.00
2018-06-14T04:11:04.474Z,77.00
2018-06-14T04:11:35.860Z,77.00
2018-06-14T04:12:07.244Z,77.00
2018-06-14T04:12:38.629Z,76.90
2018-06-14T04:13:10.000Z,76.90
2018-06-14T04:13:41.372Z,77.00
2018-06-14T04:14:12.754Z,77.00
2018-06-14T04:14:44.232Z,77.00
2018-06-14T04:15:15.912Z,76.90
2018-06-14T04:15:49.295Z,76.80
2018-06-14T04:16:22.393Z,77.00
2018-06-14T04:16:55.331Z,76.90
2018-06-14T04:17:28.238Z,76.90
2018-06-14T04:18:01.184Z,76.80
2018-06-14T04:18:34.378Z,76.80
2018-06-14T04:19:08.954Z,76.90
2018-06-14T04:19:41.177Z,77.00
2018-06-14T04:20:14.001Z,77.00
2018-06-14T04:20:47.130Z,77.00
2018-06-14T04:21:20.217Z,77.00
2018-06-14T04:21:53.314Z,77.00
2018-06-14T04:22:26.294Z,77.00
2018-06-14T04:22:57.876Z,77.00
2018-06-14T04:23:29.254Z,77.00
2018-06-14T04:24:00.662Z,76.90
2018-06-14T04:24:32.056Z,76.90
2018-06-14T04:25:03.442Z,76.90
2018-06-14T04:26:06.678Z,76.90
2018-06-14T04:26:38.060Z,76.90
2018-06-14T04:27:09.450Z,76.80
2018-06-14T04:27:40.826Z,76.90
2018-06-14T04:28:12.208Z,76.90
2018-06-14T04:28:43.584Z,76.90
2018-06-14T04:29:14.964Z,76.90
2018-06-14T04:29:46.345Z,76.80
2018-06-14T04:30:17.717Z,76.80
2018-06-14T04:30:49.158Z,76.90
2018-06-14T04:31:20.536Z,76.90
2018-06-14T04:31:51.908Z,76.90
2018-06-14T04:32:23.288Z,77.00
2018-06-14T04:32:54.670Z,76.90
2018-06-14T04:33:26.051Z,77.00
2018-06-14T04:33:57.429Z,77.00
2018-06-14T04:34:28.812Z,77.00
2018-06-14T04:35:00.202Z,77.00
2018-06-14T04:35:31.634Z,77.00
2018-06-14T04:36:03.109Z,77.00
2018-06-14T04:36:34.491Z,77.00
2018-06-14T04:37:05.877Z,77.00
2018-06-14T04:37:37.450Z,77.10
2018-06-14T04:38:08.834Z,77.00
2018-06-14T04:38:40.212Z,77.10
2018-06-14T04:39:11.601Z,77.10
2018-06-14T04:39:42.987Z,77.10
2018-06-14T04:40:14.371Z,77.10
2018-06-14T04:40:45.821Z,77.10
2018-06-14T04:41:17.192Z,77.10
2018-06-14T04:41:48.571Z,76.50
2018-06-14T04:42:19.958Z,77.10
2018-06-14T04:42:51.343Z,77.00
2018-06-14T04:43:22.730Z,77.00
2018-06-14T04:43:54.122Z,77.00
2018-06-14T04:44:25.515Z,76.90
2018-06-14T04:44:56.906Z,77.00
2018-06-14T04:45:28.281Z,76.90
2018-06-14T04:45:59.735Z,78.00
2018-06-14T04:46:31.117Z,76.90
2018-06-14T04:47:02.499Z,76.80
2018-06-14T04:47:33.881Z,76.90
2018-06-14T04:48:05.264Z,76.90
2018-06-14T04:48:36.650Z,76.80
2018-06-14T04:49:08.029Z,76.80
2018-06-14T04:49:39.423Z,76.90
2018-06-14T04:50:10.801Z,76.90
2018-06-14T04:50:42.842Z,77.00
2018-06-14T04:51:14.231Z,77.00
2018-06-14T04:51:45.621Z,77.00
2018-06-14T04:52:17.014Z,77.00
2018-06-14T04:52:48.403Z,77.00
2018-06-14T04:53:19.786Z,77.00
2018-06-14T04:53:51.174Z,77.10
2018-06-14T04:54:22.557Z,77.10
2018-06-14T04:54:53.937Z,77.00
2018-06-14T04:55:25.429Z,77.00
2018-06-14T04:55:56.881Z,77.00
2018-06-14T04:56:28.270Z,77.00
2018-06-14T04:56:59.662Z,77.00
2018-06-14T04:57:31.053Z,77.00
2018-06-14T04:58:02.439Z,77.00
2018-06-14T04:58:33.828Z,77.10
2018-06-14T04:59:05.209Z,77.10
2018-06-14T05:00:08.365Z,77.10
2018-06-14T05:00:39.805Z,77.00
2018-06-14T05:01:11.192Z,77.00
2018-06-14T05:01:42.589Z,77.00
2018-06-14T05:02:14.872Z,77.00
2018-06-14T05:02:46.310Z,77.00
2018-06-14T05:03:17.692Z,77.10
2018-06-14T05:03:49.078Z,77.10
2018-06-14T05:04:20.452Z,77.10
2018-06-14T05:04:51.842Z,77.10
2018-06-14T05:05:23.224Z,77.10
2018-06-14T05:05:54.659Z,77.20
2018-06-14T05:06:26.033Z,77.10
2018-06-14T05:06:57.413Z,77.10
2018-06-14T05:07:28.803Z,77.10
2018-06-14T05:08:00.178Z,77.20
2018-06-14T05:08:31.549Z,77.10
2018-06-14T05:09:02.924Z,77.10
2018-06-14T05:09:34.312Z,77.10
2018-06-14T05:10:05.697Z,77.10
2018-06-14T05:11:08.930Z,77.10
2018-06-14T05:11:40.313Z,77.20
2018-06-14T05:12:11.696Z,76.70
2018-06-14T05:12:43.083Z,77.20
2018-06-14T05:13:14.461Z,77.20
2018-06-14T05:13:45.884Z,77.20
2018-06-14T05:14:17.279Z,78.00
2018-06-14T05:14:48.663Z,77.20
2018-06-14T05:15:20.046Z,77.20
2018-06-14T05:15:51.481Z,77.20
2018-06-14T05:16:22.865Z,77.20
2018-06-14T05:16:54.252Z,77.20
2018-06-14T05:17:25.636Z,77.20
2018-06-14T05:17:57.019Z,77.20
2018-06-14T05:18:28.412Z,77.20
2018-06-14T05:18:59.797Z,77.20
2018-06-14T05:19:31.183Z,77.20
2018-06-14T05:20:02.568Z,77.20
2018-06-14T05:20:33.963Z,77.20
2018-06-14T05:21:05.418Z,77.20
2018-06-14T05:21:36.805Z,77.20
2018-06-14T05:22:08.195Z,77.20
2018-06-14T05:22:39.571Z,77.20
2018-06-14T05:23:10.949Z,77.20
2018-06-14T05:23:42.335Z,77.20
2018-06-14T05:24:13.704Z,77.20
2018-06-14T05:24:45.089Z,78.10
2018-06-14T05:25:16.475Z,77.30
2018-06-14T05:25:47.863Z,77.30
2018-06-14T05:26:19.255Z,77.30
2018-06-14T05:26:50.638Z,77.20
2018-06-14T05:27:22.018Z,77.20
2018-06-14T05:27:53.401Z,77.20
2018-06-14T05:28:24.794Z,77.20
2018-06-14T05:28:56.184Z,77.20
2018-06-14T05:29:27.569Z,77.20
2018-06-14T05:29:58.955Z,78.10
2018-06-14T05:30:30.331Z,77.20
2018-06-14T05:31:01.774Z,77.30
2018-06-14T05:31:33.163Z,77.30
2018-06-14T05:32:04.554Z,77.30
2018-06-14T05:32:35.935Z,77.40
2018-06-14T05:33:07.317Z,77.40
2018-06-14T05:33:38.694Z,77.40
2018-06-14T05:34:10.079Z,77.40
2018-06-14T05:34:41.465Z,77.40
2018-06-14T05:35:12.848Z,77.50
2018-06-14T05:36:15.988Z,77.40
2018-06-14T05:36:47.375Z,77.50
2018-06-14T05:37:18.761Z,77.50
2018-06-14T05:37:50.153Z,77.50
2018-06-14T05:38:21.528Z,77.50
2018-06-14T05:38:52.908Z,77.40
2018-06-14T05:39:24.295Z,77.40
2018-06-14T05:39:55.679Z,77.50
2018-06-14T05:40:27.057Z,77.50
2018-06-14T05:40:58.443Z,77.50
2018-06-14T05:41:29.819Z,77.50
2018-06-14T05:42:01.211Z,77.50
2018-06-14T05:42:32.741Z,77.50
2018-06-14T05:43:04.056Z,77.50
2018-06-14T05:43:35.441Z,77.40
2018-06-14T05:44:06.852Z,77.50
2018-06-14T05:44:38.238Z,77.50
2018-06-14T05:45:09.665Z,77.50
2018-06-14T05:45:41.051Z,78.20
2018-06-14T05:46:12.429Z,77.50
2018-06-14T05:46:43.812Z,77.50
2018-06-14T05:47:15.201Z,77.50
2018-06-14T05:47:46.643Z,77.50
2018-06-14T05:48:18.030Z,77.50
2018-06-14T05:48:49.414Z,77.50
2018-06-14T05:49:20.802Z,77.50
2018-06-14T05:49:52.206Z,77.40
2018-06-14T05:50:23.584Z,77.40
2018-06-14T05:50:54.970Z,77.50
2018-06-14T05:51:26.414Z,77.50
2018-06-14T05:51:57.802Z,77.40
2018-06-14T05:52:29.186Z,77.50
2018-06-14T05:53:00.577Z,77.50
2018-06-14T05:53:31.961Z,77.40
2018-06-14T05:54:03.341Z,77.40
2018-06-14T05:54:34.717Z,77.40
2018-06-14T05:55:06.107Z,77.40
2018-06-14T05:55:37.490Z,77.40
2018-06-14T05:56:08.934Z,78.40
2018-06-14T05:56:40.318Z,77.40
2018-06-14T05:57:11.696Z,77.50
2018-06-14T05:57:43.073Z,77.60
2018-06-14T05:58:14.461Z,77.40
2018-06-14T05:58:45.841Z,77.40
2018-06-14T05:59:17.214Z,77.40
2018-06-14T05:59:48.593Z,77.40
2018-06-14T06:00:19.977Z,77.50
2018-06-14T06:00:51.347Z,77.70
2018-06-14T06:01:22.786Z,77.60
2018-06-14T06:01:54.166Z,77.60
2018-06-14T06:02:25.552Z,77.60
2018-06-14T06:02:56.929Z,77.60
2018-06-14T06:03:28.318Z,77.50
2018-06-14T06:03:59.715Z,77.60
2018-06-14T06:04:31.090Z,77.50
2018-06-14T06:05:02.479Z,77.60
2018-06-14T06:05:33.857Z,77.50
2018-06-14T06:06:05.250Z,77.50
2018-06-14T06:06:36.692Z,77.70
2018-06-14T06:07:08.075Z,77.60
2018-06-14T06:07:39.486Z,77.60
2018-06-14T06:08:10.870Z,77.50
2018-06-14T06:08:42.255Z,77.50
2018-06-14T06:09:13.643Z,77.50
2018-06-14T06:09:45.059Z,77.60
2018-06-14T06:10:16.447Z,77.60
2018-06-14T06:10:47.882Z,77.60
2018-06-14T06:11:19.320Z,77.60
2018-06-14T06:11:50.769Z,77.70
2018-06-14T06:12:22.144Z,77.70
2018-06-14T06:12:53.535Z,77.70
2018-06-14T06:13:24.910Z,77.70
2018-06-14T06:13:56.285Z,77.70
2018-06-14T06:14:27.674Z,77.60
2018-06-14T06:14:59.072Z,77.70
2018-06-14T06:15:30.461Z,77.60
2018-06-14T06:16:01.851Z,77.60
2018-06-14T06:16:33.294Z,77.70
2018-06-14T06:17:04.688Z,77.70
2018-06-14T06:17:36.077Z,77.60
2018-06-14T06:18:07.474Z,77.60
2018-06-14T06:18:38.846Z,77.70
2018-06-14T06:19:10.226Z,77.70
2018-06-14T06:19:41.609Z,77.70
2018-06-14T06:20:12.998Z,77.70
2018-06-14T06:20:44.392Z,78.40
2018-06-14T06:21:15.766Z,77.60
2018-06-14T06:21:47.206Z,77.60
2018-06-14T06:22:18.601Z,77.50
2018-06-14T06:22:49.985Z,77.70
2018-06-14T06:23:21.381Z,77.60
2018-06-14T06:24:24.540Z,77.50
2018-06-14T06:24:55.918Z,77.50
2018-06-14T06:25:27.305Z,78.10
2018-06-14T06:25:58.727Z,77.50
2018-06-14T06:26:30.168Z,77.60
2018-06-14T06:27:01.551Z,77.60
2018-06-14T06:27:32.932Z,77.50
2018-06-14T06:28:04.318Z,77.50
2018-06-14T06:29:07.478Z,77.60
2018-06-14T06:29:38.864Z,77.60
2018-06-14T06:30:10.244Z,77.60
2018-06-14T06:30:41.620Z,77.50
2018-06-14T06:31:13.001Z,77.50
2018-06-14T06:31:44.450Z,77.50
2018-06-14T06:32:15.842Z,77.50
2018-06-14T06:32:47.226Z,77.00
2018-06-14T06:33:18.619Z,77.50
2018-06-14T06:33:50.052Z,77.50
2018-06-14T06:34:21.436Z,77.50
2018-06-14T06:34:52.813Z,77.50
2018-06-14T06:35:24.192Z,77.50
2018-06-14T06:35:55.576Z,77.60
2018-06-14T06:36:27.030Z,77.50
2018-06-14T06:36:58.415Z,77.60
2018-06-14T06:37:29.803Z,77.60
2018-06-14T06:38:01.181Z,77.50
2018-06-14T06:38:32.572Z,77.60
2018-06-14T06:39:03.954Z,77.70
2018-06-14T06:39:35.334Z,77.70
2018-06-14T06:40:06.729Z,77.50
2018-06-14T06:40:38.119Z,77.60
2018-06-14T06:41:09.512Z,77.60
2018-06-14T06:41:40.949Z,77.50
2018-06-14T06:42:12.334Z,77.50
2018-06-14T06:42:43.712Z,77.60
2018-06-14T06:43:15.087Z,77.60
2018-06-14T06:43:46.465Z,77.50
2018-06-14T06:44:17.852Z,77.60
2018-06-14T06:44:49.233Z,77.60
2018-06-14T06:45:20.622Z,77.60
2018-06-14T06:45:52.002Z,77.50
2018-06-14T06:46:23.381Z,77.60
2018-06-14T06:46:54.821Z,77.50
2018-06-14T06:47:26.224Z,77.60
2018-06-14T06:47:57.609Z,77.60
2018-06-14T06:48:28.984Z,77.50
2018-06-14T06:49:00.358Z,77.60
2018-06-14T06:49:31.748Z,77.70
2018-06-14T06:50:03.137Z,77.60
2018-06-14T06:51:06.274Z,77.70
2018-06-14T06:51:37.713Z,77.60
2018-06-14T06:52:09.098Z,77.70
2018-06-14T06:52:40.487Z,77.70
2018-06-14T06:53:11.944Z,78.40